aviador You're here:

MMSL Decoded Metar

in
Report Time2017-08-23 01:48:00
UTC Time2017-08-23 02:14:45
Flight Rules vfr VFR
Wind280° at 09 kt
W.Decomp.*RWY 29: 8.9 kt HW 1.6 kt LCW
W.Rank280° ranks 4
Current wind is below 280° avg. (11.4)
Visibility9999 m
Phenomena:N/A
Clouds:Few 250 Hf
Expected CloudBase > 3,200 ft AGL from Temp-Dew spread
CeilingNone
Temp29°C
Dew Point21°C (62% RH)
Heat Index31.3°C
QNH1014 hPa
Raw Report
METAR MMSL 230148Z 28009KT 8SM FEW250 29/21 A2994 RMK 8/008 ISOL SC=

Extra information for MMSL:More info

Social comments